map of KVD home
Great Circle Mapper logo
KVD - Airport
Location
City:  Ganja, Azerbaijan
Near (Alt.):Gyandzha
Name:Ganja International Airport
ICAO / IATA:UBBG / KVD

Details
Type:Airport (Aerodrome, Airfield)
Use:Public/Civil, International (customs port of entry)
Latitude:4044'16"N (40.737678)
Longitude:4619'03"E (46.317581)
Elevation:1083 ft (330 m)
Runways:1
Longest:8217 × 144 ft (2505 × 44 m), paved

Time
Time Zone:UTC+4 (DST+5)
Local Time:

Weather
METAR:UBBG 280600Z 36007KT 320V050 9999 SCT100 28/11 Q1014 R30/CLRD70 NOSIG
TAF:UBBG 272300Z 2800/2824 26008KT 9999 SCT050 SCT100 TX36/2812Z TN23/2802Z
BECMG 2720/2722 VRB04KT
BECMG 2809/2811 10023G33KT

Related Locations
Nearby:
Farthest:GMR: 11211 mi / 18043 km
Mangareva [Totegegie], Gambier Islands, PF

Find:

   beyond  
but within

Other Information
Maps:
NOTAMs:
Links:
Sources:

  
flag of Azerbaijan   

Sectional Chart

Flight Planning
at skyvector.com

Satellite Image

Google Maps Satellite View

 

Copyright © 2004-2014 Karl L. Swartz. All rights reserved.
The Great Circle Mapper name and logo are trademarks of the Great Circle Mapper.
All other trademarks mentioned herein belong to their respective owners.
Please see credits for attibutions and further copyright information.

  Follow gcmap on Facebook Follow gcmap on Twitter

hCard Microformat

Geo Microformat